sensor_id;sensor_type;location;lat;lon;timestamp;temperature;humidity
28677;DHT22;15858;48.338;11.078;2022-08-11T00:01:05;18.80;82.90
28677;DHT22;15858;48.338;11.078;2022-08-11T00:03:33;18.90;83.40
28677;DHT22;15858;48.338;11.078;2022-08-11T00:06:10;18.90;83.80
28677;DHT22;15858;48.338;11.078;2022-08-11T00:08:38;18.80;83.50
28677;DHT22;15858;48.338;11.078;2022-08-11T00:11:08;18.70;83.60
28677;DHT22;15858;48.338;11.078;2022-08-11T00:13:38;18.70;83.80
28677;DHT22;15858;48.338;11.078;2022-08-11T00:16:17;18.70;83.90
28677;DHT22;15858;48.338;11.078;2022-08-11T00:18:50;18.60;84.30
28677;DHT22;15858;48.338;11.078;2022-08-11T00:21:22;18.60;84.20
28677;DHT22;15858;48.338;11.078;2022-08-11T00:24:09;18.60;84.40
28677;DHT22;15858;48.338;11.078;2022-08-11T00:26:36;18.60;84.90
28677;DHT22;15858;48.338;11.078;2022-08-11T00:29:10;18.60;85.00
28677;DHT22;15858;48.338;11.078;2022-08-11T00:31:37;18.60;85.10
28677;DHT22;15858;48.338;11.078;2022-08-11T00:34:10;18.50;85.20
28677;DHT22;15858;48.338;11.078;2022-08-11T00:36:42;18.50;85.30
28677;DHT22;15858;48.338;11.078;2022-08-11T00:39:12;18.50;85.50
28677;DHT22;15858;48.338;11.078;2022-08-11T00:47:20;18.40;86.20
28677;DHT22;15858;48.338;11.078;2022-08-11T00:50:23;18.40;86.00
28677;DHT22;15858;48.338;11.078;2022-08-11T00:53:07;18.30;86.20
28677;DHT22;15858;48.338;11.078;2022-08-11T01:02:05;18.30;86.30
28677;DHT22;15858;48.338;11.078;2022-08-11T01:08:00;18.30;86.50
28677;DHT22;15858;48.338;11.078;2022-08-11T01:10:53;18.40;86.40
28677;DHT22;15858;48.338;11.078;2022-08-11T01:19:00;18.50;86.30
28677;DHT22;15858;48.338;11.078;2022-08-11T01:22:15;18.50;86.30
28677;DHT22;15858;48.338;11.078;2022-08-11T01:30:56;18.50;86.90
28677;DHT22;15858;48.338;11.078;2022-08-11T01:37:22;18.50;87.10
28677;DHT22;15858;48.338;11.078;2022-08-11T01:48:19;18.40;87.80
28677;DHT22;15858;48.338;11.078;2022-08-11T01:51:14;18.40;87.90
28677;DHT22;15858;48.338;11.078;2022-08-11T01:53:58;18.40;87.80
28677;DHT22;15858;48.338;11.078;2022-08-11T01:59:38;18.40;88.50
28677;DHT22;15858;48.338;11.078;2022-08-11T02:02:38;18.30;88.60
28677;DHT22;15858;48.338;11.078;2022-08-11T02:10:56;18.20;89.60
28677;DHT22;15858;48.338;11.078;2022-08-11T02:13:50;18.20;89.80
28677;DHT22;15858;48.338;11.078;2022-08-11T02:17:14;18.20;89.80
28677;DHT22;15858;48.338;11.078;2022-08-11T02:19:57;18.20;90.00
28677;DHT22;15858;48.338;11.078;2022-08-11T02:27:59;18.10;90.30
28677;DHT22;15858;48.338;11.078;2022-08-11T02:30:32;18.10;90.40
28677;DHT22;15858;48.338;11.078;2022-08-11T02:33:21;18.00;90.40
28677;DHT22;15858;48.338;11.078;2022-08-11T02:36:14;18.00;90.70
28677;DHT22;15858;48.338;11.078;2022-08-11T02:38:53;18.00;90.80
28677;DHT22;15858;48.338;11.078;2022-08-11T02:41:29;18.00;90.70
28677;DHT22;15858;48.338;11.078;2022-08-11T02:52:56;17.90;91.10
28677;DHT22;15858;48.338;11.078;2022-08-11T02:55:36;17.90;91.20
28677;DHT22;15858;48.338;11.078;2022-08-11T02:58:50;17.90;91.30
28677;DHT22;15858;48.338;11.078;2022-08-11T03:01:25;17.80;91.60
28677;DHT22;15858;48.338;11.078;2022-08-11T03:03:59;17.80;91.80
28677;DHT22;15858;48.338;11.078;2022-08-11T03:06:46;17.70;91.70
28677;DHT22;15858;48.338;11.078;2022-08-11T03:09:23;17.70;91.80
28677;DHT22;15858;48.338;11.078;2022-08-11T03:12:07;17.70;91.90
28677;DHT22;15858;48.338;11.078;2022-08-11T03:17:31;17.70;92.10
28677;DHT22;15858;48.338;11.078;2022-08-11T03:20:27;17.70;92.20
28677;DHT22;15858;48.338;11.078;2022-08-11T03:26:09;17.70;92.20
28677;DHT22;15858;48.338;11.078;2022-08-11T03:33:49;17.60;92.80
28677;DHT22;15858;48.338;11.078;2022-08-11T03:42:42;17.60;92.80
28677;DHT22;15858;48.338;11.078;2022-08-11T03:48:24;17.50;93.30
28677;DHT22;15858;48.338;11.078;2022-08-11T03:53:59;17.50;93.40
28677;DHT22;15858;48.338;11.078;2022-08-11T04:21:16;17.40;94.50
28677;DHT22;15858;48.338;11.078;2022-08-11T04:30:56;17.30;94.80
28677;DHT22;15858;48.338;11.078;2022-08-11T04:35:51;17.10;95.20
28677;DHT22;15858;48.338;11.078;2022-08-11T04:38:43;17.20;95.40
28677;DHT22;15858;48.338;11.078;2022-08-11T04:50:06;17.20;95.60
28677;DHT22;15858;48.338;11.078;2022-08-11T04:53:05;17.30;95.80
28677;DHT22;15858;48.338;11.078;2022-08-11T05:16:10;17.50;96.10
28677;DHT22;15858;48.338;11.078;2022-08-11T05:18:49;17.50;96.30
28677;DHT22;15858;48.338;11.078;2022-08-11T05:21:19;17.70;96.00
28677;DHT22;15858;48.338;11.078;2022-08-11T05:24:02;17.70;96.00
28677;DHT22;15858;48.338;11.078;2022-08-11T05:26:38;17.80;96.10
28677;DHT22;15858;48.338;11.078;2022-08-11T05:32:12;17.90;96.20
28677;DHT22;15858;48.338;11.078;2022-08-11T05:34:50;18.10;95.70
28677;DHT22;15858;48.338;11.078;2022-08-11T05:40:09;18.20;95.60
28677;DHT22;15858;48.338;11.078;2022-08-11T05:42:49;18.20;95.40
28677;DHT22;15858;48.338;11.078;2022-08-11T05:45:18;18.30;95.30
28677;DHT22;15858;48.338;11.078;2022-08-11T05:47:49;18.30;95.00
28677;DHT22;15858;48.338;11.078;2022-08-11T05:50:17;18.40;95.10
28677;DHT22;15858;48.338;11.078;2022-08-11T05:53:00;18.50;95.00
28677;DHT22;15858;48.338;11.078;2022-08-11T05:55:30;18.60;95.00
28677;DHT22;15858;48.338;11.078;2022-08-11T05:58:02;18.70;94.50
28677;DHT22;15858;48.338;11.078;2022-08-11T06:00:30;18.90;94.90
28677;DHT22;15858;48.338;11.078;2022-08-11T06:03:00;18.80;94.40
28677;DHT22;15858;48.338;11.078;2022-08-11T06:05:32;18.90;94.40
28677;DHT22;15858;48.338;11.078;2022-08-11T06:08:07;19.00;94.20
28677;DHT22;15858;48.338;11.078;2022-08-11T06:10:40;19.00;94.00
28677;DHT22;15858;48.338;11.078;2022-08-11T06:13:09;19.10;94.10
28677;DHT22;15858;48.338;11.078;2022-08-11T06:15:48;19.20;93.70
28677;DHT22;15858;48.338;11.078;2022-08-11T06:18:16;19.20;93.60
28677;DHT22;15858;48.338;11.078;2022-08-11T06:20:55;19.30;93.80
28677;DHT22;15858;48.338;11.078;2022-08-11T06:23:24;19.40;93.40
28677;DHT22;15858;48.338;11.078;2022-08-11T06:25:51;19.30;93.10
28677;DHT22;15858;48.338;11.078;2022-08-11T06:28:33;19.20;93.50
28677;DHT22;15858;48.338;11.078;2022-08-11T06:31:12;19.40;93.80
28677;DHT22;15858;48.338;11.078;2022-08-11T06:33:54;19.50;93.70
28677;DHT22;15858;48.338;11.078;2022-08-11T06:36:43;19.60;93.20
28677;DHT22;15858;48.338;11.078;2022-08-11T06:39:32;19.80;93.40
28677;DHT22;15858;48.338;11.078;2022-08-11T06:42:08;20.10;92.80
28677;DHT22;15858;48.338;11.078;2022-08-11T06:45:00;19.90;92.40
28677;DHT22;15858;48.338;11.078;2022-08-11T06:47:27;20.00;92.50
28677;DHT22;15858;48.338;11.078;2022-08-11T06:49:56;20.20;92.80
28677;DHT22;15858;48.338;11.078;2022-08-11T06:52:30;20.30;92.30
28677;DHT22;15858;48.338;11.078;2022-08-11T06:55:20;20.40;92.70
28677;DHT22;15858;48.338;11.078;2022-08-11T06:58:16;20.50;92.10
28677;DHT22;15858;48.338;11.078;2022-08-11T07:00:46;20.60;91.90
28677;DHT22;15858;48.338;11.078;2022-08-11T07:03:18;20.60;91.50
28677;DHT22;15858;48.338;11.078;2022-08-11T07:06:00;20.60;91.90
28677;DHT22;15858;48.338;11.078;2022-08-11T07:14:00;20.60;91.50
28677;DHT22;15858;48.338;11.078;2022-08-11T07:16:29;20.70;91.50
28677;DHT22;15858;48.338;11.078;2022-08-11T07:19:04;20.80;91.40
28677;DHT22;15858;48.338;11.078;2022-08-11T07:21:34;20.80;91.50
28677;DHT22;15858;48.338;11.078;2022-08-11T07:24:25;21.00;90.90
28677;DHT22;15858;48.338;11.078;2022-08-11T07:27:16;20.90;91.10
28677;DHT22;15858;48.338;11.078;2022-08-11T07:29:46;21.20;90.70
28677;DHT22;15858;48.338;11.078;2022-08-11T07:32:21;21.30;91.10
28677;DHT22;15858;48.338;11.078;2022-08-11T07:34:55;21.40;90.50
28677;DHT22;15858;48.338;11.078;2022-08-11T07:37:23;21.30;90.00
28677;DHT22;15858;48.338;11.078;2022-08-11T07:39:51;21.30;89.90
28677;DHT22;15858;48.338;11.078;2022-08-11T07:42:22;21.30;89.50
28677;DHT22;15858;48.338;11.078;2022-08-11T07:44:54;21.30;90.00
28677;DHT22;15858;48.338;11.078;2022-08-11T07:47:21;21.40;89.60
28677;DHT22;15858;48.338;11.078;2022-08-11T07:49:51;21.60;88.50
28677;DHT22;15858;48.338;11.078;2022-08-11T07:52:19;21.60;89.00
28677;DHT22;15858;48.338;11.078;2022-08-11T07:54:46;21.90;87.80
28677;DHT22;15858;48.338;11.078;2022-08-11T07:57:17;21.90;88.00
28677;DHT22;15858;48.338;11.078;2022-08-11T08:00:04;22.00;87.20
28677;DHT22;15858;48.338;11.078;2022-08-11T08:02:32;22.30;86.30
28677;DHT22;15858;48.338;11.078;2022-08-11T08:04:59;22.40;85.70
28677;DHT22;15858;48.338;11.078;2022-08-11T08:07:25;22.40;86.20
28677;DHT22;15858;48.338;11.078;2022-08-11T08:09:53;22.60;86.10
28677;DHT22;15858;48.338;11.078;2022-08-11T08:12:23;22.80;84.70
28677;DHT22;15858;48.338;11.078;2022-08-11T08:14:52;22.80;83.20
28677;DHT22;15858;48.338;11.078;2022-08-11T08:17:21;23.00;82.20
28677;DHT22;15858;48.338;11.078;2022-08-11T08:19:48;23.00;83.30
28677;DHT22;15858;48.338;11.078;2022-08-11T08:22:17;22.90;83.10
28677;DHT22;15858;48.338;11.078;2022-08-11T08:25:06;22.90;82.40
28677;DHT22;15858;48.338;11.078;2022-08-11T08:27:34;22.90;82.40
28677;DHT22;15858;48.338;11.078;2022-08-11T08:30:03;23.00;83.20
28677;DHT22;15858;48.338;11.078;2022-08-11T08:32:31;23.00;82.70
28677;DHT22;15858;48.338;11.078;2022-08-11T08:34:58;23.10;82.40
28677;DHT22;15858;48.338;11.078;2022-08-11T08:37:25;23.30;82.30
28677;DHT22;15858;48.338;11.078;2022-08-11T08:40:14;23.20;81.40
28677;DHT22;15858;48.338;11.078;2022-08-11T08:42:47;23.60;81.20
28677;DHT22;15858;48.338;11.078;2022-08-11T08:45:15;23.70;80.20
28677;DHT22;15858;48.338;11.078;2022-08-11T08:47:45;23.70;79.30
28677;DHT22;15858;48.338;11.078;2022-08-11T08:50:21;23.90;79.70
28677;DHT22;15858;48.338;11.078;2022-08-11T08:53:03;23.80;79.00
28677;DHT22;15858;48.338;11.078;2022-08-11T08:55:32;23.90;78.90
28677;DHT22;15858;48.338;11.078;2022-08-11T08:57:59;24.00;79.10
28677;DHT22;15858;48.338;11.078;2022-08-11T09:00:38;24.10;79.10
28677;DHT22;15858;48.338;11.078;2022-08-11T09:03:06;24.30;79.00
28677;DHT22;15858;48.338;11.078;2022-08-11T09:05:54;24.50;78.50
28677;DHT22;15858;48.338;11.078;2022-08-11T09:08:22;24.50;76.90
28677;DHT22;15858;48.338;11.078;2022-08-11T09:10:50;24.60;77.00
28677;DHT22;15858;48.338;11.078;2022-08-11T09:13:17;24.70;76.70
28677;DHT22;15858;48.338;11.078;2022-08-11T09:15:44;24.60;76.40
28677;DHT22;15858;48.338;11.078;2022-08-11T09:18:11;24.60;75.20
28677;DHT22;15858;48.338;11.078;2022-08-11T09:20:38;24.70;75.60
28677;DHT22;15858;48.338;11.078;2022-08-11T09:23:07;24.80;76.80
28677;DHT22;15858;48.338;11.078;2022-08-11T09:25:57;25.10;74.10
28677;DHT22;15858;48.338;11.078;2022-08-11T09:28:27;24.90;73.80
28677;DHT22;15858;48.338;11.078;2022-08-11T09:30:54;24.80;74.40
28677;DHT22;15858;48.338;11.078;2022-08-11T09:33:23;24.80;74.00
28677;DHT22;15858;48.338;11.078;2022-08-11T09:35:51;24.90;74.50
28677;DHT22;15858;48.338;11.078;2022-08-11T09:38:21;25.20;73.60
28677;DHT22;15858;48.338;11.078;2022-08-11T09:40:49;25.30;73.10
28677;DHT22;15858;48.338;11.078;2022-08-11T09:43:22;25.40;73.60
28677;DHT22;15858;48.338;11.078;2022-08-11T09:45:53;25.20;74.00
28677;DHT22;15858;48.338;11.078;2022-08-11T09:48:23;25.40;73.20
28677;DHT22;15858;48.338;11.078;2022-08-11T09:50:53;25.40;71.60
28677;DHT22;15858;48.338;11.078;2022-08-11T09:53:21;25.60;70.70
28677;DHT22;15858;48.338;11.078;2022-08-11T09:56:14;25.60;69.50
28677;DHT22;15858;48.338;11.078;2022-08-11T09:58:43;25.50;68.70
28677;DHT22;15858;48.338;11.078;2022-08-11T10:01:11;25.60;68.90
28677;DHT22;15858;48.338;11.078;2022-08-11T10:03:40;25.80;67.80
28677;DHT22;15858;48.338;11.078;2022-08-11T10:06:08;26.00;69.00
28677;DHT22;15858;48.338;11.078;2022-08-11T10:08:38;25.90;67.70
28677;DHT22;15858;48.338;11.078;2022-08-11T10:11:13;26.10;67.30
28677;DHT22;15858;48.338;11.078;2022-08-11T10:13:44;26.10;68.10
28677;DHT22;15858;48.338;11.078;2022-08-11T10:16:33;26.20;67.40
28677;DHT22;15858;48.338;11.078;2022-08-11T10:19:02;26.20;67.40
28677;DHT22;15858;48.338;11.078;2022-08-11T10:24:03;26.30;67.30
28677;DHT22;15858;48.338;11.078;2022-08-11T10:26:32;26.60;67.60
28677;DHT22;15858;48.338;11.078;2022-08-11T10:29:00;26.80;67.30
28677;DHT22;15858;48.338;11.078;2022-08-11T10:31:39;26.60;66.30
28677;DHT22;15858;48.338;11.078;2022-08-11T10:34:26;26.60;67.30
28677;DHT22;15858;48.338;11.078;2022-08-11T10:36:55;26.80;67.20
28677;DHT22;15858;48.338;11.078;2022-08-11T10:39:25;27.00;66.70
28677;DHT22;15858;48.338;11.078;2022-08-11T10:41:53;27.10;64.60
28677;DHT22;15858;48.338;11.078;2022-08-11T10:44:39;26.70;63.60
28677;DHT22;15858;48.338;11.078;2022-08-11T10:47:09;26.80;65.30
28677;DHT22;15858;48.338;11.078;2022-08-11T10:49:38;26.80;64.00
28677;DHT22;15858;48.338;11.078;2022-08-11T10:52:05;27.10;64.70
28677;DHT22;15858;48.338;11.078;2022-08-11T10:54:33;27.30;61.70
28677;DHT22;15858;48.338;11.078;2022-08-11T10:57:01;27.30;64.10
28677;DHT22;15858;48.338;11.078;2022-08-11T10:59:28;27.30;63.70
28677;DHT22;15858;48.338;11.078;2022-08-11T11:01:55;27.60;64.20
28677;DHT22;15858;48.338;11.078;2022-08-11T11:04:32;27.80;61.00
28677;DHT22;15858;48.338;11.078;2022-08-11T11:07:16;27.50;60.90
28677;DHT22;15858;48.338;11.078;2022-08-11T11:09:48;27.50;61.70
28677;DHT22;15858;48.338;11.078;2022-08-11T11:12:22;27.60;61.60
28677;DHT22;15858;48.338;11.078;2022-08-11T11:14:51;27.80;60.50
28677;DHT22;15858;48.338;11.078;2022-08-11T11:17:45;27.80;59.00
28677;DHT22;15858;48.338;11.078;2022-08-11T11:20:16;27.90;59.80
28677;DHT22;15858;48.338;11.078;2022-08-11T11:23:06;27.80;60.00
28677;DHT22;15858;48.338;11.078;2022-08-11T11:35:00;28.00;59.30
28677;DHT22;15858;48.338;11.078;2022-08-11T11:37:31;27.80;59.80
28677;DHT22;15858;48.338;11.078;2022-08-11T11:39:59;28.10;59.60
28677;DHT22;15858;48.338;11.078;2022-08-11T11:42:27;28.20;58.50
28677;DHT22;15858;48.338;11.078;2022-08-11T11:44:55;28.40;60.00
28677;DHT22;15858;48.338;11.078;2022-08-11T11:47:27;28.60;57.00
28677;DHT22;15858;48.338;11.078;2022-08-11T11:49:54;28.60;58.20
28677;DHT22;15858;48.338;11.078;2022-08-11T11:52:21;28.60;58.30
28677;DHT22;15858;48.338;11.078;2022-08-11T11:54:51;28.60;56.90
28677;DHT22;15858;48.338;11.078;2022-08-11T11:57:21;28.50;57.80
28677;DHT22;15858;48.338;11.078;2022-08-11T11:59:50;28.30;57.60
28677;DHT22;15858;48.338;11.078;2022-08-11T12:02:17;28.50;57.60
28677;DHT22;15858;48.338;11.078;2022-08-11T12:04:45;28.40;57.00
28677;DHT22;15858;48.338;11.078;2022-08-11T12:07:12;28.60;56.60
28677;DHT22;15858;48.338;11.078;2022-08-11T12:09:39;28.90;56.60
28677;DHT22;15858;48.338;11.078;2022-08-11T12:12:07;28.70;56.60
28677;DHT22;15858;48.338;11.078;2022-08-11T12:14:35;28.70;56.70
28677;DHT22;15858;48.338;11.078;2022-08-11T12:17:02;28.60;56.30
28677;DHT22;15858;48.338;11.078;2022-08-11T12:19:29;28.70;56.60
28677;DHT22;15858;48.338;11.078;2022-08-11T12:22:01;28.50;56.80
28677;DHT22;15858;48.338;11.078;2022-08-11T12:24:29;28.40;56.80
28677;DHT22;15858;48.338;11.078;2022-08-11T12:26:57;28.50;56.20
28677;DHT22;15858;48.338;11.078;2022-08-11T12:29:47;28.40;55.70
28677;DHT22;15858;48.338;11.078;2022-08-11T12:32:39;28.50;55.90
28677;DHT22;15858;48.338;11.078;2022-08-11T12:35:08;28.70;56.30
28677;DHT22;15858;48.338;11.078;2022-08-11T12:37:44;28.90;55.80
28677;DHT22;15858;48.338;11.078;2022-08-11T12:40:18;29.30;54.00
28677;DHT22;15858;48.338;11.078;2022-08-11T12:43:12;29.40;54.40
28677;DHT22;15858;48.338;11.078;2022-08-11T12:45:51;29.40;54.90
28677;DHT22;15858;48.338;11.078;2022-08-11T12:48:20;29.50;54.40
28677;DHT22;15858;48.338;11.078;2022-08-11T12:51:09;29.50;54.30
28677;DHT22;15858;48.338;11.078;2022-08-11T12:53:41;29.40;54.10
28677;DHT22;15858;48.338;11.078;2022-08-11T12:56:09;29.70;53.00
28677;DHT22;15858;48.338;11.078;2022-08-11T12:58:39;29.60;53.70
28677;DHT22;15858;48.338;11.078;2022-08-11T13:01:06;29.60;52.50
28677;DHT22;15858;48.338;11.078;2022-08-11T13:03:38;29.60;53.60
28677;DHT22;15858;48.338;11.078;2022-08-11T13:06:06;29.50;53.90
28677;DHT22;15858;48.338;11.078;2022-08-11T13:08:38;29.60;54.50
28677;DHT22;15858;48.338;11.078;2022-08-11T13:11:06;29.60;53.70
28677;DHT22;15858;48.338;11.078;2022-08-11T13:13:35;29.70;53.40
28677;DHT22;15858;48.338;11.078;2022-08-11T13:16:28;29.60;52.70
28677;DHT22;15858;48.338;11.078;2022-08-11T13:18:59;29.60;53.30
28677;DHT22;15858;48.338;11.078;2022-08-11T13:21:27;29.60;54.60
28677;DHT22;15858;48.338;11.078;2022-08-11T13:23:56;29.70;53.50
28677;DHT22;15858;48.338;11.078;2022-08-11T13:26:29;30.00;52.90
28677;DHT22;15858;48.338;11.078;2022-08-11T13:29:20;30.00;52.40
28677;DHT22;15858;48.338;11.078;2022-08-11T13:31:48;30.00;52.50
28677;DHT22;15858;48.338;11.078;2022-08-11T13:34:17;30.00;53.20
28677;DHT22;15858;48.338;11.078;2022-08-11T13:36:50;29.90;52.80
28677;DHT22;15858;48.338;11.078;2022-08-11T13:39:17;29.80;51.70
28677;DHT22;15858;48.338;11.078;2022-08-11T13:41:46;29.60;51.80
28677;DHT22;15858;48.338;11.078;2022-08-11T13:44:15;29.70;52.30
28677;DHT22;15858;48.338;11.078;2022-08-11T13:46:51;29.70;51.50
28677;DHT22;15858;48.338;11.078;2022-08-11T13:49:20;29.40;51.00
28677;DHT22;15858;48.338;11.078;2022-08-11T13:51:47;29.40;50.40
28677;DHT22;15858;48.338;11.078;2022-08-11T13:54:22;29.50;50.80
28677;DHT22;15858;48.338;11.078;2022-08-11T13:56:52;29.70;51.70
28677;DHT22;15858;48.338;11.078;2022-08-11T13:59:20;29.40;53.30
28677;DHT22;15858;48.338;11.078;2022-08-11T14:01:53;29.50;52.40
28677;DHT22;15858;48.338;11.078;2022-08-11T14:04:42;29.50;51.90
28677;DHT22;15858;48.338;11.078;2022-08-11T14:07:10;29.00;51.20
28677;DHT22;15858;48.338;11.078;2022-08-11T14:09:39;29.00;51.80
28677;DHT22;15858;48.338;11.078;2022-08-11T14:12:28;29.00;51.00
28677;DHT22;15858;48.338;11.078;2022-08-11T14:17:49;28.70;52.30
28677;DHT22;15858;48.338;11.078;2022-08-11T14:20:19;28.90;51.60
28677;DHT22;15858;48.338;11.078;2022-08-11T14:23:08;28.80;50.70
28677;DHT22;15858;48.338;11.078;2022-08-11T14:25:36;28.90;51.20
28677;DHT22;15858;48.338;11.078;2022-08-11T14:28:22;28.80;51.10
28677;DHT22;15858;48.338;11.078;2022-08-11T14:31:01;28.90;49.90
28677;DHT22;15858;48.338;11.078;2022-08-11T14:33:30;28.60;51.50
28677;DHT22;15858;48.338;11.078;2022-08-11T14:36:20;28.50;50.50
28677;DHT22;15858;48.338;11.078;2022-08-11T14:38:48;28.50;50.40
28677;DHT22;15858;48.338;11.078;2022-08-11T14:41:16;28.40;50.40
28677;DHT22;15858;48.338;11.078;2022-08-11T14:43:43;28.30;49.80
28677;DHT22;15858;48.338;11.078;2022-08-11T14:46:31;28.30;51.00
28677;DHT22;15858;48.338;11.078;2022-08-11T14:49:03;28.30;50.50
28677;DHT22;15858;48.338;11.078;2022-08-11T14:51:30;28.30;52.30
28677;DHT22;15858;48.338;11.078;2022-08-11T14:53:58;28.30;52.00
28677;DHT22;15858;48.338;11.078;2022-08-11T14:56:25;28.60;50.10
28677;DHT22;15858;48.338;11.078;2022-08-11T14:58:52;28.40;50.60
28677;DHT22;15858;48.338;11.078;2022-08-11T15:01:19;28.20;50.10
28677;DHT22;15858;48.338;11.078;2022-08-11T15:03:46;28.20;50.70
28677;DHT22;15858;48.338;11.078;2022-08-11T15:06:33;28.30;50.80
28677;DHT22;15858;48.338;11.078;2022-08-11T15:09:00;28.20;50.90
28677;DHT22;15858;48.338;11.078;2022-08-11T15:11:34;28.20;50.00
28677;DHT22;15858;48.338;11.078;2022-08-11T15:14:03;28.20;50.60
28677;DHT22;15858;48.338;11.078;2022-08-11T15:16:30;28.20;49.90
28677;DHT22;15858;48.338;11.078;2022-08-11T15:18:58;28.00;50.40
28677;DHT22;15858;48.338;11.078;2022-08-11T15:21:25;28.20;50.10
28677;DHT22;15858;48.338;11.078;2022-08-11T15:23:51;28.20;50.00
28677;DHT22;15858;48.338;11.078;2022-08-11T15:26:24;28.20;49.50
28677;DHT22;15858;48.338;11.078;2022-08-11T15:28:53;28.10;49.60
28677;DHT22;15858;48.338;11.078;2022-08-11T15:31:22;28.10;49.40
28677;DHT22;15858;48.338;11.078;2022-08-11T15:33:57;28.10;49.00
28677;DHT22;15858;48.338;11.078;2022-08-11T15:36:29;28.00;48.30
28677;DHT22;15858;48.338;11.078;2022-08-11T15:39:03;28.00;49.00
28677;DHT22;15858;48.338;11.078;2022-08-11T15:41:42;28.00;49.20
28677;DHT22;15858;48.338;11.078;2022-08-11T15:44:21;28.20;49.60
28677;DHT22;15858;48.338;11.078;2022-08-11T15:47:08;28.30;48.50
28677;DHT22;15858;48.338;11.078;2022-08-11T15:49:38;28.20;48.20
28677;DHT22;15858;48.338;11.078;2022-08-11T15:52:30;28.20;48.40
28677;DHT22;15858;48.338;11.078;2022-08-11T15:55:01;28.30;48.20
28677;DHT22;15858;48.338;11.078;2022-08-11T15:57:34;28.40;47.70
28677;DHT22;15858;48.338;11.078;2022-08-11T16:00:06;28.00;48.30
28677;DHT22;15858;48.338;11.078;2022-08-11T16:02:33;28.10;48.90
28677;DHT22;15858;48.338;11.078;2022-08-11T16:05:02;28.20;49.10
28677;DHT22;15858;48.338;11.078;2022-08-11T16:07:32;28.10;49.80
28677;DHT22;15858;48.338;11.078;2022-08-11T16:10:13;28.20;49.10
28677;DHT22;15858;48.338;11.078;2022-08-11T16:12:51;28.10;49.40
28677;DHT22;15858;48.338;11.078;2022-08-11T16:15:19;27.90;48.70
28677;DHT22;15858;48.338;11.078;2022-08-11T16:17:50;27.80;49.40
28677;DHT22;15858;48.338;11.078;2022-08-11T16:20:23;27.40;49.50
28677;DHT22;15858;48.338;11.078;2022-08-11T16:22:54;27.40;50.10
28677;DHT22;15858;48.338;11.078;2022-08-11T16:25:28;27.50;50.30
28677;DHT22;15858;48.338;11.078;2022-08-11T16:28:16;27.50;50.00
28677;DHT22;15858;48.338;11.078;2022-08-11T16:30:45;27.40;49.80
28677;DHT22;15858;48.338;11.078;2022-08-11T16:33:12;27.40;50.10
28677;DHT22;15858;48.338;11.078;2022-08-11T16:36:02;27.40;49.90
28677;DHT22;15858;48.338;11.078;2022-08-11T16:38:30;27.30;50.10
28677;DHT22;15858;48.338;11.078;2022-08-11T16:40:58;27.30;50.10
28677;DHT22;15858;48.338;11.078;2022-08-11T16:43:27;27.30;49.90
28677;DHT22;15858;48.338;11.078;2022-08-11T16:45:55;27.10;49.90
28677;DHT22;15858;48.338;11.078;2022-08-11T16:48:25;27.10;49.00
28677;DHT22;15858;48.338;11.078;2022-08-11T16:51:09;27.00;49.50
28677;DHT22;15858;48.338;11.078;2022-08-11T16:53:36;27.00;49.40
28677;DHT22;15858;48.338;11.078;2022-08-11T16:56:37;26.80;49.40
28677;DHT22;15858;48.338;11.078;2022-08-11T16:59:23;26.60;49.50
28677;DHT22;15858;48.338;11.078;2022-08-11T17:01:59;26.50;50.10
28677;DHT22;15858;48.338;11.078;2022-08-11T17:04:49;26.50;50.10
28677;DHT22;15858;48.338;11.078;2022-08-11T17:07:19;26.60;49.80
28677;DHT22;15858;48.338;11.078;2022-08-11T17:10:12;26.40;50.00
28677;DHT22;15858;48.338;11.078;2022-08-11T17:13:01;26.40;50.30
28677;DHT22;15858;48.338;11.078;2022-08-11T17:15:29;26.40;50.50
28677;DHT22;15858;48.338;11.078;2022-08-11T17:17:58;26.20;49.50
28677;DHT22;15858;48.338;11.078;2022-08-11T17:20:27;26.10;49.80
28677;DHT22;15858;48.338;11.078;2022-08-11T17:23:09;26.10;50.10
28677;DHT22;15858;48.338;11.078;2022-08-11T17:25:39;26.00;49.80
28677;DHT22;15858;48.338;11.078;2022-08-11T17:28:28;25.90;49.80
28677;DHT22;15858;48.338;11.078;2022-08-11T17:30:55;25.80;50.40
28677;DHT22;15858;48.338;11.078;2022-08-11T17:33:23;25.80;50.00
28677;DHT22;15858;48.338;11.078;2022-08-11T17:35:50;25.80;50.90
28677;DHT22;15858;48.338;11.078;2022-08-11T17:38:21;25.70;51.20
28677;DHT22;15858;48.338;11.078;2022-08-11T17:40:54;25.70;50.90
28677;DHT22;15858;48.338;11.078;2022-08-11T17:43:22;25.80;50.90
28677;DHT22;15858;48.338;11.078;2022-08-11T17:45:49;25.70;51.20
28677;DHT22;15858;48.338;11.078;2022-08-11T17:48:16;25.60;51.30
28677;DHT22;15858;48.338;11.078;2022-08-11T17:50:44;25.70;51.40
28677;DHT22;15858;48.338;11.078;2022-08-11T17:53:12;25.80;51.00
28677;DHT22;15858;48.338;11.078;2022-08-11T17:55:40;25.60;51.40
28677;DHT22;15858;48.338;11.078;2022-08-11T17:58:20;25.40;52.30
28677;DHT22;15858;48.338;11.078;2022-08-11T18:00:48;25.30;52.70
28677;DHT22;15858;48.338;11.078;2022-08-11T18:03:17;25.20;52.50
28677;DHT22;15858;48.338;11.078;2022-08-11T18:05:46;25.20;52.70
28677;DHT22;15858;48.338;11.078;2022-08-11T18:08:15;25.20;52.60
28677;DHT22;15858;48.338;11.078;2022-08-11T18:10:45;25.10;53.10
28677;DHT22;15858;48.338;11.078;2022-08-11T18:13:15;25.10;52.90
28677;DHT22;15858;48.338;11.078;2022-08-11T18:15:45;25.00;53.00
28677;DHT22;15858;48.338;11.078;2022-08-11T18:18:21;24.90;53.10
28677;DHT22;15858;48.338;11.078;2022-08-11T18:20:48;24.80;53.50
28677;DHT22;15858;48.338;11.078;2022-08-11T18:23:18;24.80;53.50
28677;DHT22;15858;48.338;11.078;2022-08-11T18:26:08;24.70;54.00
28677;DHT22;15858;48.338;11.078;2022-08-11T18:28:42;24.60;54.10
28677;DHT22;15858;48.338;11.078;2022-08-11T18:31:12;24.60;54.10
28677;DHT22;15858;48.338;11.078;2022-08-11T18:33:53;24.50;54.30
28677;DHT22;15858;48.338;11.078;2022-08-11T18:36:44;24.40;54.60
28677;DHT22;15858;48.338;11.078;2022-08-11T18:39:12;24.20;54.80
28677;DHT22;15858;48.338;11.078;2022-08-11T18:41:41;24.20;55.40
28677;DHT22;15858;48.338;11.078;2022-08-11T18:44:12;24.10;55.00
28677;DHT22;15858;48.338;11.078;2022-08-11T18:46:44;24.00;55.30
28677;DHT22;15858;48.338;11.078;2022-08-11T18:49:16;23.90;55.70
28677;DHT22;15858;48.338;11.078;2022-08-11T18:51:47;23.80;55.90
28677;DHT22;15858;48.338;11.078;2022-08-11T18:54:17;23.70;56.40